.
WxDataArchive / Data Records for 2008-12-06
2008-12-05 December 2008 2008-12-07

Data Records for Saturday, 06 December 2008

Time	Temp	Chill	HIndex	Humid	Dewpt	 Wind 	HiWind	WindDir	Rain 	Barom 
-----	----	-----	------	-----	-----	------	------	-------	-----	----- 
00:00	15.4	15.4	15.4	72	8.0	1	5	248	0.00	30.102 
00:05	15.6	15.6	15.6	72	8.2	1	4	248	0.00	30.101 
00:10	15.6	15.6	15.6	72	8.2	1	4	248	0.00	30.100 
00:15	15.7	15.7	15.7	72	8.3	1	4	248	0.00	30.096 
00:20	15.7	15.7	15.7	72	8.3	1	5	248	0.00	30.100 
00:25	15.9	15.9	15.9	72	8.5	1	5	248	0.00	30.097 
00:30	15.9	15.9	15.9	72	8.5	1	4	248	0.00	30.089 
00:35	16.1	16.1	16.1	72	8.7	1	3	248	0.00	30.087 
00:40	16.2	16.2	16.2	72	8.8	1	4	248	0.00	30.083 
00:45	16.2	16.2	16.2	72	8.8	1	6	248	0.00	30.082 
00:50	16.4	16.4	16.4	72	9.0	1	4	270	0.00	30.073 
00:55	16.4	16.4	16.4	72	9.0	1	3	248	0.00	30.070 
01:00	16.5	16.5	16.5	72	9.1	1	3	248	0.00	30.068 
01:05	16.5	16.5	16.5	72	9.1	2	5	248	0.00	30.067 
01:10	16.7	16.7	16.7	72	9.3	1	3	248	0.00	30.064 
01:15	16.9	16.9	16.9	72	9.5	1	4	248	0.00	30.052 
01:20	16.9	16.9	16.9	72	9.5	0	2	248	0.00	30.053 
01:25	17.0	17.0	17.0	72	9.6	0	2	248	0.00	30.048 
01:30	17.0	17.0	17.0	72	9.6	1	5	248	0.00	30.051 
01:35	17.2	17.2	17.2	72	9.8	1	3	248	0.00	30.049 
01:40	17.3	17.3	17.3	72	9.8	1	3	292	0.00	30.042 
01:45	17.3	17.3	17.3	71	9.5	1	4	248	0.00	30.037 
01:50	17.5	17.5	17.5	71	9.7	1	5	248	0.00	30.037 
01:55	17.5	17.5	17.5	71	9.7	1	5	248	0.00	30.036 
02:00	17.5	17.5	17.5	71	9.7	2	7	248	0.00	30.032 
02:05	17.7	17.7	17.7	72	10.2	1	5	270	0.00	30.026 
02:10	17.7	17.7	17.7	72	10.2	1	5	248	0.00	30.033 
02:15	17.7	17.7	17.7	72	10.2	1	4	248	0.00	30.026 
02:20	17.7	17.7	17.7	72	10.2	1	3	248	0.00	30.026 
02:25	17.7	17.7	17.7	72	10.2	1	5	248	0.00	30.029 
02:30	17.8	17.8	17.8	72	10.3	1	5	270	0.00	30.020 
02:35	18.0	18.0	18.0	72	10.5	1	4	248	0.00	30.021 
02:40	18.0	18.0	18.0	72	10.5	1	4	248	0.00	30.020 
02:45	18.1	18.1	18.1	72	10.6	1	7	248	0.00	30.020 
02:50	18.3	18.3	18.3	72	10.8	1	3	248	0.00	30.016 
02:55	18.4	18.4	18.4	71	10.6	1	4	248	0.00	30.010 
03:00	18.6	18.6	18.6	71	10.8	1	5	248	0.00	30.003 
03:05	18.6	18.6	18.6	71	10.8	1	6	248	0.00	30.006 
03:10	18.8	18.8	18.8	71	11.0	2	5	248	0.00	30.007 
03:15	18.9	18.9	18.9	71	11.1	1	3	248	0.00	30.004 
03:20	18.9	18.9	18.9	70	10.8	1	4	248	0.00	30.004 
03:25	19.1	19.1	19.1	71	11.3	1	5	248	0.00	30.001 
03:30	19.1	19.1	19.1	71	11.3	1	4	248	0.00	29.994 
03:35	19.2	19.2	19.2	71	11.4	1	4	270	0.00	29.991 
03:40	19.2	19.2	19.2	71	11.4	0	2	22	0.00	29.988 
03:45	19.4	19.4	19.4	72	11.9	1	3	248	0.00	29.983 
03:50	19.4	19.4	19.4	72	11.9	1	4	90	0.00	29.977 
03:55	19.4	19.4	19.4	72	11.9	1	4	248	0.00	29.973 
04:00	19.4	19.4	19.4	72	11.9	1	3	248	0.00	29.971 
04:05	19.5	19.5	19.5	72	12.0	1	4	270	0.00	29.964 
04:10	19.5	19.5	19.5	72	12.0	1	4	248	0.00	29.956 
04:15	19.7	19.7	19.7	72	12.2	1	3	68	0.00	29.954 
04:20	19.7	19.7	19.7	72	12.2	1	4	270	0.00	29.945 
04:25	19.9	19.9	19.9	72	12.4	1	4	90	0.00	29.940 
04:30	20.0	20.0	20.0	72	12.5	1	3	90	0.00	29.938 
04:35	20.0	20.0	20.0	72	12.5	1	5	45	0.00	29.935 
04:40	20.2	20.2	20.2	72	12.6	2	5	90	0.00	29.928 
04:45	20.3	20.3	20.3	72	12.7	1	5	68	0.00	29.923 
04:50	20.3	20.3	20.3	72	12.7	1	4	0	0.00	29.923 
04:55	20.5	20.5	20.5	71	12.6	2	6	248	0.00	29.921 
05:00	20.5	20.5	20.5	71	12.6	1	4	248	0.00	29.914 
05:05	20.6	20.6	20.6	71	12.7	1	5	338	0.00	29.911 
05:10	20.8	20.8	20.8	71	12.9	1	6	248	0.00	29.906 
05:15	20.8	20.8	20.8	71	12.9	1	6	270	0.00	29.903 
05:20	21.0	21.0	21.0	71	13.1	1	5	112	0.00	29.899 
05:25	21.0	21.0	21.0	72	13.4	1	3	292	0.00	29.898 
05:30	21.0	21.0	21.0	73	13.7	1	3	292	0.00	29.894 
05:35	21.0	21.0	21.0	74	14.0	1	5	270	0.00	29.892 
05:40	20.8	20.8	20.8	74	13.8	2	5	68	0.00	29.889 
05:45	21.0	21.0	21.0	74	14.0	1	6	90	0.00	29.878 
05:50	21.0	21.0	21.0	75	14.3	1	3	68	0.00	29.876 
05:55	21.0	21.0	21.0	75	14.3	1	7	292	0.00	29.877 
06:00	21.0	21.0	21.0	75	14.3	1	3	68	0.00	29.875 
06:05	21.0	21.0	21.0	76	14.6	1	5	315	0.00	29.874 
06:10	21.0	21.0	21.0	77	14.9	1	4	45	0.00	29.873 
06:15	21.0	21.0	21.0	76	14.6	1	5	90	0.00	29.868 
06:20	21.1	21.1	21.1	76	14.7	1	4	22	0.00	29.867 
06:25	21.1	21.1	21.1	76	14.7	1	5	90	0.00	29.861 
06:30	21.1	21.1	21.1	76	14.7	1	6	292	0.00	29.860 
06:35	21.1	21.1	21.1	76	14.7	2	10	68	0.00	29.857 
06:40	21.3	21.3	21.3	76	14.9	2	5	90	0.00	29.850 
06:45	21.3	21.3	21.3	76	14.9	1	4	270	0.00	29.846 
06:50	21.4	21.4	21.4	76	15.0	1	6	338	0.00	29.845 
06:55	21.4	21.4	21.4	76	15.0	2	6	112	0.00	29.843 
07:00	21.6	21.6	21.6	75	14.9	1	4	292	0.00	29.833 
07:05	21.6	21.6	21.6	75	14.9	1	3	90	0.00	29.831 
07:10	21.8	21.8	21.8	75	15.1	2	5	248	0.00	29.829 
07:15	21.9	21.9	21.9	75	15.2	1	4	90	0.00	29.827 
07:20	21.9	21.9	21.9	74	14.9	1	3	292	0.00	29.826 
07:25	22.2	22.2	22.2	74	15.2	1	3	45	0.00	29.827 
07:30	22.4	22.4	22.4	74	15.4	1	6	248	0.00	29.825 
07:35	22.5	22.5	22.5	74	15.5	1	5	270	0.00	29.826 
07:40	22.5	22.5	22.5	74	15.5	2	6	248	0.00	29.824 
07:45	22.7	22.7	22.7	74	15.7	2	6	270	0.00	29.820 
07:50	22.7	22.7	22.7	75	16.0	3	7	270	0.00	29.815 
07:55	22.7	22.7	22.7	75	16.0	2	7	270	0.00	29.811 
08:00	22.9	22.9	22.9	76	16.5	2	9	270	0.00	29.809 
08:05	22.9	22.9	22.9	77	16.8	2	12	248	0.00	29.807 
08:10	22.7	22.7	22.7	78	16.9	1	6	248	0.00	29.807 
08:15	22.7	22.7	22.7	79	17.2	3	8	248	0.00	29.807 
08:20	22.7	22.7	22.7	80	17.5	2	5	248	0.00	29.805 
08:25	22.7	22.7	22.7	81	17.8	2	9	248	0.00	29.804 
08:30	22.7	22.7	22.7	81	17.8	2	7	248	0.00	29.802 
08:35	22.7	22.7	22.7	82	18.0	2	10	248	0.00	29.801 
08:40	22.7	22.7	22.7	83	18.3	2	5	270	0.00	29.802 
08:45	22.7	22.7	22.7	84	18.6	2	7	225	0.00	29.797 
08:50	22.9	22.9	22.9	85	19.1	2	5	248	0.00	29.795 
08:55	22.9	22.9	22.9	85	19.1	2	7	248	0.00	29.795 
09:00	22.9	22.9	22.9	86	19.4	2	7	270	0.00	29.794 
09:05	23.0	23.0	23.0	86	19.4	3	9	292	0.00	29.793 
09:10	23.2	23.2	23.2	86	19.6	2	9	270	0.00	29.793 
09:15	23.3	23.3	23.3	86	19.7	2	4	248	0.00	29.788 
09:20	23.3	23.3	23.3	86	19.7	2	7	248	0.00	29.789 
09:25	23.5	23.5	23.5	86	19.9	3	9	248	0.00	29.786 
09:30	23.6	23.6	23.6	85	19.8	3	7	248	0.00	29.784 
09:35	23.8	23.8	23.8	85	20.0	2	6	248	0.00	29.785 
09:40	23.9	23.9	23.9	85	20.1	3	10	270	0.00	29.782 
09:45	23.9	18.7	23.9	85	20.1	4	10	248	0.00	29.781 
09:50	24.1	24.1	24.1	85	20.3	3	9	270	0.00	29.780 
09:55	24.2	24.2	24.2	85	20.4	3	10	248	0.00	29.779 
10:00	24.4	24.4	24.4	84	20.3	3	7	248	0.00	29.780 
10:05	24.5	24.5	24.5	84	20.4	3	10	248	0.00	29.777 
10:10	24.7	24.7	24.7	84	20.6	3	7	248	0.00	29.777 
10:15	24.7	24.7	24.7	84	20.6	3	10	270	0.00	29.776 
10:20	24.8	24.8	24.8	84	20.7	3	9	248	0.00	29.776 
10:25	24.8	24.8	24.8	84	20.7	2	7	248	0.00	29.775 
10:30	24.8	24.8	24.8	85	20.9	3	9	248	0.00	29.772 
10:35	24.8	24.8	24.8	85	20.9	2	4	270	0.00	29.772 
10:40	24.7	19.6	24.7	85	20.8	4	11	248	0.00	29.767 
10:45	24.7	19.6	24.7	85	20.8	4	10	248	0.00	29.765 
10:50	24.7	24.7	24.7	85	20.8	3	9	248	0.00	29.761 
10:55	24.7	24.7	24.7	85	20.8	3	12	248	0.00	29.761 
11:00	24.7	19.6	24.7	84	20.6	4	10	270	0.00	29.758 
11:05	24.8	24.8	24.8	84	20.7	2	6	270	0.00	29.756 
11:10	24.8	24.8	24.8	84	20.7	3	10	248	0.00	29.759 
11:15	24.8	24.8	24.8	84	20.7	3	10	248	0.00	29.755 
11:20	24.8	19.8	24.8	84	20.7	4	8	248	0.00	29.753 
11:25	24.8	19.8	24.8	85	20.9	4	12	248	0.00	29.750 
11:30	24.8	18.6	24.8	85	20.9	5	13	270	0.00	29.746 
11:35	24.8	19.8	24.8	86	21.2	4	12	248	0.00	29.745 
11:40	25.0	25.0	25.0	86	21.4	3	12	248	0.00	29.745 
11:45	25.0	20.0	25.0	87	21.7	4	9	270	0.00	29.742 
11:50	25.0	20.0	25.0	87	21.7	4	10	270	0.00	29.741 
11:55	25.1	25.1	25.1	88	22.1	3	8	248	0.00	29.736 
12:00	25.1	20.1	25.1	88	22.1	4	10	248	0.00	29.731 
12:05	25.3	25.3	25.3	88	22.3	3	10	248	0.00	29.727 
12:10	25.4	25.4	25.4	88	22.4	3	7	270	0.00	29.727 
12:15	25.6	25.6	25.6	88	22.5	3	8	248	0.00	29.724 
12:20	25.7	20.8	25.7	89	22.9	4	11	248	0.00	29.724 
12:25	25.8	20.9	25.8	89	23.0	4	7	248	0.00	29.720 
12:30	26.0	21.1	26.0	89	23.2	4	9	248	0.00	29.716 
12:35	26.1	26.1	26.1	89	23.3	3	9	248	0.00	29.713 
12:40	26.3	26.3	26.3	89	23.5	2	7	248	0.00	29.713 
12:45	26.4	26.4	26.4	88	23.3	3	10	248	0.00	29.712 
12:50	26.6	26.6	26.6	88	23.5	2	6	248	0.00	29.712 
12:55	26.6	26.6	26.6	88	23.5	3	9	248	0.00	29.708 
13:00	26.7	26.7	26.7	88	23.6	3	11	248	0.00	29.707 
13:05	27.0	27.0	27.0	88	23.9	3	7	248	0.00	29.706 
13:10	27.2	22.5	27.2	87	23.9	4	11	248	0.00	29.706 
13:15	27.3	27.3	27.3	87	24.0	3	11	248	0.00	29.703 
13:20	27.5	22.9	27.5	86	23.9	4	9	248	0.00	29.702 
13:25	27.6	27.6	27.6	86	24.0	2	6	248	0.00	29.697 
13:30	27.6	23.0	27.6	86	24.0	4	8	248	0.00	29.695 
13:35	27.8	27.8	27.8	86	24.2	3	8	248	0.00	29.694 
13:40	27.9	27.9	27.9	86	24.3	3	7	248	0.00	29.693 
13:45	27.9	27.9	27.9	86	24.3	3	7	248	0.00	29.692 
13:50	28.1	28.1	28.1	86	24.5	3	9	248	0.00	29.693 
13:55	28.2	28.2	28.2	87	24.8	3	6	248	0.00	29.692 
14:00	28.4	28.4	28.4	87	25.0	2	7	248	0.00	29.689 
14:05	28.4	28.4	28.4	87	25.0	2	7	270	0.00	29.688 
14:10	28.5	28.5	28.5	87	25.1	2	6	248	0.00	29.681 
14:15	28.7	24.3	28.7	87	25.3	4	9	248	0.00	29.681 
14:20	28.8	28.8	28.8	87	25.4	2	5	248	0.00	29.680 
14:25	28.8	28.8	28.8	87	25.4	3	5	248	0.00	29.681 
14:30	28.8	28.8	28.8	88	25.7	3	6	248	0.00	29.680 
14:35	28.8	28.8	28.8	88	25.7	2	6	248	0.00	29.677 
14:40	29.0	29.0	29.0	88	25.9	2	6	248	0.00	29.677 
14:45	29.0	29.0	29.0	88	25.9	3	6	248	0.00	29.676 
14:50	29.0	29.0	29.0	89	26.2	2	7	248	0.00	29.676 
14:55	29.0	29.0	29.0	89	26.2	3	10	248	0.00	29.676 
15:00	29.0	29.0	29.0	89	26.2	3	7	248	0.00	29.676 
15:05	29.1	29.1	29.1	89	26.3	2	8	248	0.00	29.675 
15:10	29.1	24.7	29.1	90	26.5	4	10	248	0.00	29.677 
15:15	29.1	29.1	29.1	90	26.5	2	7	248	0.00	29.677 
15:20	29.1	29.1	29.1	90	26.5	3	6	248	0.00	29.677 
15:25	29.3	29.3	29.3	90	26.7	2	7	248	0.00	29.677 
15:30	29.3	29.3	29.3	90	26.7	3	7	248	0.00	29.680 
15:35	29.4	29.4	29.4	90	26.8	3	6	248	0.00	29.681 
15:40	29.5	29.5	29.5	90	26.9	3	7	248	0.00	29.684 
15:45	29.7	29.7	29.7	90	27.1	3	10	248	0.00	29.684 
15:50	29.8	29.8	29.8	90	27.2	3	6	248	0.00	29.683 
15:55	30.0	30.0	30.0	90	27.4	3	6	248	0.00	29.682 
16:00	30.0	30.0	30.0	91	27.7	3	6	248	0.00	29.684 
16:05	30.1	30.1	30.1	91	27.8	3	7	270	0.00	29.683 
16:10	30.3	30.3	30.3	91	28.0	3	7	248	0.00	29.681 
16:15	30.3	30.3	30.3	91	28.0	3	9	248	0.00	29.687 
16:20	30.3	26.1	30.3	90	27.7	4	9	270	0.00	29.689 
16:25	30.1	25.9	30.1	90	27.5	4	16	270	0.00	29.696 
16:30	29.8	25.5	29.8	88	26.7	4	16	270	0.00	29.703 
16:35	29.4	24.0	29.4	88	26.3	5	16	270	0.00	29.705 
16:40	29.1	24.7	29.1	88	26.0	4	13	270	0.00	29.711 
16:45	29.0	29.0	29.0	88	25.9	2	7	270	0.00	29.717 
16:50	28.8	28.8	28.8	89	26.0	3	6	270	0.00	29.720 
16:55	28.8	28.8	28.8	89	26.0	3	7	270	0.00	29.723 
17:00	28.7	28.7	28.7	89	25.9	3	8	270	0.00	29.731 
17:05	28.7	24.3	28.7	89	25.9	4	7	270	0.00	29.735 
17:10	28.7	28.7	28.7	89	25.9	3	6	270	0.00	29.736 
17:15	28.7	28.7	28.7	89	25.9	3	4	270	0.00	29.741 
17:20	28.7	28.7	28.7	89	25.9	2	5	248	0.00	29.746 
17:25	28.7	28.7	28.7	89	25.9	2	9	270	0.00	29.750 
17:30	28.4	28.4	28.4	88	25.3	3	6	270	0.00	29.753 
17:35	28.4	28.4	28.4	88	25.3	2	5	270	0.00	29.757 
17:40	28.2	28.2	28.2	87	24.8	2	4	270	0.00	29.764 
17:45	28.2	28.2	28.2	87	24.8	2	4	338	0.00	29.767 
17:50	28.2	28.2	28.2	86	24.6	2	5	270	0.00	29.769 
17:55	28.1	28.1	28.1	86	24.5	3	5	270	0.00	29.772 
18:00	27.9	27.9	27.9	85	24.0	1	3	270	0.00	29.775 
18:05	27.9	27.9	27.9	84	23.7	1	3	248	0.00	29.774 
18:10	27.8	27.8	27.8	84	23.6	2	5	248	0.00	29.776 
18:15	27.8	27.8	27.8	83	23.3	2	4	270	0.00	29.779 
18:20	27.8	27.8	27.8	83	23.3	2	4	248	0.00	29.782 
18:25	27.8	27.8	27.8	83	23.3	2	5	270	0.00	29.783 
18:30	27.6	27.6	27.6	83	23.1	2	4	270	0.00	29.784 
18:35	27.6	27.6	27.6	83	23.1	2	4	248	0.00	29.787 
18:40	27.6	27.6	27.6	82	22.8	2	6	270	0.00	29.791 
18:45	27.5	27.5	27.5	82	22.7	2	6	270	0.00	29.797 
18:50	27.5	27.5	27.5	82	22.7	2	4	270	0.00	29.798 
18:55	27.3	27.3	27.3	82	22.5	2	5	270	0.00	29.801 
19:00	27.3	27.3	27.3	82	22.5	2	6	270	0.00	29.802 
19:05	27.3	27.3	27.3	81	22.3	3	5	270	0.00	29.801 
19:10	27.2	27.2	27.2	81	22.2	2	5	270	0.00	29.802 
19:15	27.2	27.2	27.2	81	22.2	2	5	270	0.00	29.805 
19:20	27.2	27.2	27.2	81	22.2	2	5	270	0.00	29.812 
19:25	27.2	27.2	27.2	81	22.2	3	7	270	0.00	29.813 
19:30	27.0	27.0	27.0	81	22.0	2	4	270	0.00	29.816 
19:35	27.0	27.0	27.0	82	22.3	3	6	270	0.00	29.816 
19:40	26.9	26.9	26.9	82	22.2	3	5	270	0.00	29.818 
19:45	26.9	26.9	26.9	82	22.2	3	9	270	0.00	29.823 
19:50	26.7	26.7	26.7	83	22.2	2	4	248	0.00	29.826 
19:55	26.7	26.7	26.7	83	22.2	2	5	248	0.00	29.829 
20:00	26.7	22.0	26.7	84	22.5	4	6	270	0.00	29.831 
20:05	26.6	26.6	26.6	84	22.4	3	7	248	0.00	29.832 
20:10	26.4	26.4	26.4	85	22.5	3	7	270	0.00	29.836 
20:15	26.4	26.4	26.4	85	22.5	3	5	270	0.00	29.838 
20:20	26.3	26.3	26.3	86	22.7	2	4	248	0.00	29.844 
20:25	26.3	26.3	26.3	86	22.7	2	6	270	0.00	29.847 
20:30	26.3	26.3	26.3	86	22.7	3	5	270	0.00	29.850 
20:35	26.1	26.1	26.1	87	22.8	3	6	270	0.00	29.852 
20:40	26.1	26.1	26.1	87	22.8	3	6	270	0.00	29.855 
20:45	26.3	26.3	26.3	86	22.7	3	6	270	0.00	29.861 
20:50	26.3	26.3	26.3	86	22.7	3	5	270	0.00	29.863 
20:55	26.3	26.3	26.3	86	22.7	2	4	270	0.00	29.863 
21:00	26.3	26.3	26.3	86	22.7	3	5	270	0.00	29.864 
21:05	26.3	26.3	26.3	85	22.4	3	6	270	0.00	29.863 
21:10	26.3	26.3	26.3	85	22.4	2	6	270	0.00	29.864 
21:15	26.3	26.3	26.3	85	22.4	2	4	270	0.00	29.865 
21:20	26.1	26.1	26.1	86	22.5	1	4	270	0.00	29.869 
21:25	26.0	26.0	26.0	86	22.4	3	5	270	0.00	29.871 
21:30	25.8	25.8	25.8	86	22.2	3	6	270	0.00	29.874 
21:35	25.8	25.8	25.8	85	21.9	2	7	338	0.00	29.876 
21:40	25.7	25.7	25.7	85	21.8	2	5	338	0.00	29.878 
21:45	25.7	25.7	25.7	85	21.8	2	5	338	0.00	29.878 
21:50	25.6	25.6	25.6	85	21.7	2	6	270	0.00	29.879 
21:55	25.4	25.4	25.4	85	21.5	3	7	315	0.00	29.884 
22:00	25.4	25.4	25.4	84	21.3	3	9	292	0.00	29.888 
22:05	25.4	25.4	25.4	84	21.3	3	7	270	0.00	29.889 
22:10	25.3	25.3	25.3	83	20.9	3	7	270	0.00	29.890 
22:15	25.3	25.3	25.3	82	20.6	3	5	270	0.00	29.893 
22:20	25.1	25.1	25.1	81	20.1	3	10	292	0.00	29.894 
22:25	25.1	25.1	25.1	80	19.8	3	9	248	0.00	29.895 
22:30	25.0	25.0	25.0	81	20.0	3	6	270	0.00	29.898 
22:35	24.8	24.8	24.8	80	19.5	3	9	270	0.00	29.902 
22:40	24.7	24.7	24.7	80	19.4	3	7	270	0.00	29.907 
22:45	24.7	24.7	24.7	79	19.1	3	6	270	0.00	29.910 
22:50	24.7	24.7	24.7	79	19.1	3	7	270	0.00	29.912 
22:55	24.7	24.7	24.7	79	19.1	3	6	315	0.00	29.916 
23:00	24.7	24.7	24.7	79	19.1	2	7	270	0.00	29.920 
23:05	24.7	24.7	24.7	79	19.1	2	6	315	0.00	29.923 
23:10	24.5	24.5	24.5	78	18.6	3	10	270	0.00	29.925 
23:15	24.4	24.4	24.4	77	18.2	3	10	270	0.00	29.926 
23:20	24.4	24.4	24.4	77	18.2	3	6	270	0.00	29.931 
23:25	24.2	24.2	24.2	77	18.1	3	6	270	0.00	29.932 
23:30	24.1	24.1	24.1	77	18.0	2	6	292	0.00	29.935 
23:35	23.9	23.9	23.9	77	17.8	3	5	270	0.00	29.941 
23:40	23.9	23.9	23.9	77	17.8	3	6	270	0.00	29.942 
23:45	23.8	23.8	23.8	77	17.7	3	11	270	0.00	29.943 
23:50	23.8	23.8	23.8	77	17.7	3	9	270	0.00	29.944 
23:55	23.6	23.6	23.6	77	17.5	3	7	270	0.00	29.944 

CoCoRaHS
IN-AL-39
A2 Web Hosting
Creative Commons License
GoDaddy
search engine by freefind advanced

loaded 2018-11-17 05:45:17 • last modified 2010-11-18 10:43:29
Privacy PolicyDisclaimer
• wx.awcolley.com is powered by PmWiki v.2002016 •
• all content (unless otherwise noted) © 2018 A W Colley